Time;durP1;ratioP1;P1;durP2;ratioP2;P2;SDS_P1;SDS_P2;PMS_P1;PMS_P2;Temp;Humidity;BMP_temperature;BMP_pressure;BME280_temperature;BME280_humidity;BME280_pressure;Samples;Min_cycle;Max_cycle;Signal;HPM_P1;HPM_P2
2024/04/17 00:01:00;;;;;;;3.70;3.37;;;;;;;2.93;100.00;98871.38;5396342;26;20278;-54
2024/04/17 00:03:25;;;;;;;3.27;2.97;;;;;;;2.91;100.00;98868.91;5353885;26;20233;-56
2024/04/17 00:05:51;;;;;;;3.50;3.20;;;;;;;2.95;100.00;98872.81;5395690;26;20287;-54
2024/04/17 00:08:16;;;;;;;5.80;3.77;;;;;;;3.04;100.00;98872.63;5378819;26;20664;-52
2024/04/17 00:10:41;;;;;;;5.43;4.10;;;;;;;2.97;100.00;98870.75;5390326;26;20746;-56
2024/04/17 00:13:07;;;;;;;4.63;3.57;;;;;;;2.96;100.00;98868.28;5401875;26;20243;-56
2024/04/17 00:15:32;;;;;;;7.43;4.07;;;;;;;2.97;100.00;98873.41;5413579;26;20235;-58
2024/04/17 00:17:58;;;;;;;5.53;3.97;;;;;;;3.04;100.00;98870.78;5403951;26;20306;-55
2024/04/17 00:20:23;;;;;;;4.77;3.60;;;;;;;3.08;100.00;98872.00;5398756;26;20235;-57
2024/04/17 00:22:48;;;;;;;4.67;3.50;;;;;;;3.05;100.00;98871.59;5395575;26;20227;-55
2024/04/17 00:25:14;;;;;;;4.87;3.83;;;;;;;3.14;100.00;98874.88;5398445;26;20236;-55
2024/04/17 00:27:39;;;;;;;4.40;3.47;;;;;;;3.11;100.00;98870.81;5397626;26;20239;-56
2024/04/17 00:30:05;;;;;;;5.93;3.77;;;;;;;3.14;100.00;98872.22;5394941;26;20278;-55
2024/04/17 00:32:30;;;;;;;5.20;4.20;;;;;;;3.10;100.00;98879.81;5397086;26;20343;-56
2024/04/17 00:34:56;;;;;;;4.03;3.23;;;;;;;3.02;100.00;98874.66;5413170;26;20235;-56
2024/04/17 00:37:21;;;;;;;3.97;3.17;;;;;;;3.03;100.00;98874.44;5402482;26;20301;-56
2024/04/17 00:39:47;;;;;;;4.87;3.90;;;;;;;3.18;100.00;98865.50;5383920;26;20302;-57
2024/04/17 00:42:12;;;;;;;5.57;4.00;;;;;;;3.18;100.00;98862.84;5350143;26;20244;-55
2024/04/17 00:44:37;;;;;;;4.13;3.27;;;;;;;3.14;100.00;98858.94;5395247;26;20235;-56
2024/04/17 00:47:05;;;;;;;4.77;4.07;;;;;;;3.13;100.00;98863.44;5382631;26;20228;-56
2024/04/17 00:49:31;;;;;;;5.37;4.30;;;;;;;3.08;100.00;98860.56;5396667;26;20340;-55
2024/04/17 00:51:56;;;;;;;7.10;4.40;;;;;;;3.11;100.00;98860.97;5379650;26;20575;-57
2024/04/17 00:54:22;;;;;;;5.13;4.13;;;;;;;3.11;100.00;98854.84;5390563;26;20236;-55
2024/04/17 00:56:47;;;;;;;5.83;4.10;;;;;;;3.10;100.00;98848.72;5365910;26;20239;-55
2024/04/17 00:59:13;;;;;;;4.77;3.67;;;;;;;3.16;100.00;98854.25;5406818;26;20289;-56
2024/04/17 01:01:38;;;;;;;4.00;3.13;;;;;;;3.21;100.00;98849.13;5412813;26;20274;-57
2024/04/17 01:04:03;;;;;;;5.47;3.87;;;;;;;3.17;100.00;98855.88;5404110;26;20286;-55
2024/04/17 01:06:29;;;;;;;3.53;3.03;;;;;;;3.14;100.00;98848.31;5400044;26;20220;-56
2024/04/17 01:08:54;;;;;;;4.63;3.47;;;;;;;3.08;100.00;98855.25;5394888;26;20248;-55
2024/04/17 01:11:20;;;;;;;4.13;3.57;;;;;;;3.07;100.00;98851.75;5403975;26;20234;-55
2024/04/17 01:13:45;;;;;;;5.80;3.83;;;;;;;3.12;100.00;98851.19;5402736;26;20243;-56
2024/04/17 01:16:10;;;;;;;5.30;3.77;;;;;;;3.13;100.00;98851.97;5406704;26;20740;-55
2024/04/17 01:18:36;;;;;;;4.03;3.37;;;;;;;3.08;100.00;98847.28;5351147;26;20833;-55
2024/04/17 01:21:03;;;;;;;4.07;3.20;;;;;;;3.04;100.00;98848.69;5394992;26;20271;-56
2024/04/17 01:23:28;;;;;;;6.50;3.57;;;;;;;3.00;100.00;98848.28;5395767;26;20747;-56
2024/04/17 01:25:53;;;;;;;5.63;3.80;;;;;;;3.00;100.00;98850.94;5392919;26;20228;-54
2024/04/17 01:28:19;;;;;;;5.97;3.50;;;;;;;2.91;100.00;98850.31;5393312;26;20229;-56
2024/04/17 01:30:44;;;;;;;4.67;3.43;;;;;;;2.99;100.00;98851.13;5395968;26;20235;-56
2024/04/17 01:33:09;;;;;;;6.47;3.57;;;;;;;3.06;100.00;98846.66;5403058;26;20739;-56
2024/04/17 01:35:35;;;;;;;5.27;3.60;;;;;;;3.11;100.00;98850.34;5387038;26;20240;-57
2024/04/17 01:38:00;;;;;;;6.10;3.93;;;;;;;3.09;100.00;98843.59;5402313;26;20239;-56
2024/04/17 01:40:25;;;;;;;4.17;3.47;;;;;;;3.03;100.00;98849.72;5367573;26;20271;-56
2024/04/17 01:42:50;;;;;;;5.90;4.03;;;;;;;3.06;100.00;98847.47;5407908;26;20266;-54
2024/04/17 01:45:16;;;;;;;6.40;4.00;;;;;;;3.00;100.00;98848.28;5405330;26;20622;-53
2024/04/17 01:47:41;;;;;;;6.97;4.87;;;;;;;3.00;100.00;98847.47;5412779;26;21139;-55
2024/04/17 01:50:07;;;;;;;8.43;5.03;;;;;;;3.09;100.00;98852.38;5414051;26;20235;-54
2024/04/17 01:52:33;;;;;;;6.93;4.63;;;;;;;3.24;100.00;98854.84;5400923;26;20355;-55
2024/04/17 01:54:59;;;;;;;8.17;5.13;;;;;;;3.32;100.00;98855.69;5401558;26;20650;-55
2024/04/17 01:57:24;;;;;;;6.40;5.33;;;;;;;3.41;100.00;98860.63;5387770;26;20314;-56
2024/04/17 01:59:49;;;;;;;7.30;5.07;;;;;;;3.51;100.00;98859.41;5393306;26;20328;-55
2024/04/17 02:02:15;;;;;;;6.60;4.97;;;;;;;3.47;100.00;98863.50;5380731;26;20274;-53
2024/04/17 02:04:40;;;;;;;7.50;4.93;;;;;;;3.50;100.00;98863.91;5393745;26;20235;-58
2024/04/17 02:07:05;;;;;;;5.23;4.27;;;;;;;3.58;100.00;98865.53;5370296;26;20261;-52
2024/04/17 02:09:30;;;;;;;4.83;3.93;;;;;;;3.51;100.00;98859.41;5401028;26;20244;-55
2024/04/17 02:11:56;;;;;;;6.43;5.00;;;;;;;3.41;100.00;98859.81;5400320;26;20605;-56
2024/04/17 02:14:21;;;;;;;6.17;4.80;;;;;;;3.51;100.00;98868.19;5413746;26;20235;-54
2024/04/17 02:16:46;;;;;;;5.47;4.37;;;;;;;3.52;100.00;98864.53;5382274;26;20236;-52
2024/04/17 02:19:12;;;;;;;6.77;4.57;;;;;;;3.47;100.00;98863.50;5380162;26;20341;-54
2024/04/17 02:21:37;;;;;;;7.20;5.00;;;;;;;3.54;100.00;98861.66;5394027;26;20715;-55
2024/04/17 02:24:02;;;;;;;7.70;4.90;;;;;;;3.57;100.00;98861.25;5386863;26;20663;-53
2024/04/17 02:26:28;;;;;;;8.50;6.33;;;;;;;3.62;100.00;98863.31;5414625;26;20227;-54
2024/04/17 02:28:53;;;;;;;8.50;6.13;;;;;;;3.67;100.00;98871.50;5399530;26;20237;-56
2024/04/17 02:31:19;;;;;;;8.30;5.57;;;;;;;3.71;100.00;98865.53;5404167;26;20240;-54
2024/04/17 02:33:44;;;;;;;8.23;5.43;;;;;;;3.70;100.00;98860.44;5381249;26;20337;-55
2024/04/17 02:36:09;;;;;;;9.23;5.83;;;;;;;3.78;100.00;98875.38;5414607;26;20337;-52
2024/04/17 02:38:35;;;;;;;8.40;5.43;;;;;;;3.80;100.00;98868.00;5400183;26;20232;-52
2024/04/17 02:41:01;;;;;;;9.67;5.73;;;;;;;3.81;100.00;98864.31;5407726;26;20231;-53
2024/04/17 02:43:26;;;;;;;9.77;6.10;;;;;;;3.93;100.00;98867.16;5402229;26;20275;-54
2024/04/17 02:45:51;;;;;;;9.03;6.20;;;;;;;3.98;100.00;98875.34;5392596;26;20286;-53
2024/04/17 02:48:16;;;;;;;10.87;6.50;;;;;;;4.02;100.00;98867.78;5389141;26;20235;-55
2024/04/17 02:50:42;;;;;;;9.23;6.00;;;;;;;4.11;100.00;98866.56;5398115;26;20278;-55
2024/04/17 02:53:08;;;;;;;9.23;6.67;;;;;;;4.09;100.00;98868.63;5363268;26;20580;-53
2024/04/17 02:55:33;;;;;;;12.77;6.23;;;;;;;3.99;100.00;98867.19;5392635;26;20231;-55
2024/04/17 02:57:58;;;;;;;10.87;6.80;;;;;;;3.97;100.00;98874.56;5367600;26;20231;-54
2024/04/17 03:00:25;;;;;;;8.43;5.83;;;;;;;4.04;100.00;98869.22;5414329;26;20334;-54
2024/04/17 03:02:50;;;;;;;9.00;6.10;;;;;;;4.11;100.00;98863.91;5385178;26;20282;-56
2024/04/17 03:05:16;;;;;;;9.33;6.23;;;;;;;4.17;100.00;98863.03;5399449;26;20232;-56
2024/04/17 03:07:44;;;;;;;8.53;6.03;;;;;;;4.25;100.00;98864.69;5367603;26;20240;-55
2024/04/17 03:10:10;;;;;;;11.10;7.07;;;;;;;4.24;100.00;98871.84;5379328;26;20833;-56
2024/04/17 03:12:35;;;;;;;10.30;6.47;;;;;;;4.32;100.00;98872.66;5407089;26;20227;-55
2024/04/17 03:15:00;;;;;;;10.90;7.00;;;;;;;4.29;100.00;98871.22;5392494;26;20232;-52
2024/04/17 03:17:25;;;;;;;9.30;6.03;;;;;;;4.36;100.00;98866.72;5376589;26;20774;-55
2024/04/17 03:19:51;;;;;;;8.50;5.70;;;;;;;4.47;100.00;98865.25;5385800;26;20263;-56
2024/04/17 03:22:16;;;;;;;9.07;6.27;;;;;;;4.42;100.00;98873.03;5404845;26;20227;-52
2024/04/17 03:24:41;;;;;;;8.73;5.53;;;;;;;4.42;100.00;98870.38;5400193;26;20727;-52
2024/04/17 03:27:06;;;;;;;9.93;6.70;;;;;;;4.38;100.00;98866.50;5378943;26;20262;-53
2024/04/17 03:29:32;;;;;;;9.70;6.27;;;;;;;4.49;100.00;98873.84;5395807;26;20340;-53
2024/04/17 03:32:03;;;;;;;9.63;6.57;;;;;;;4.57;100.00;98876.28;5382330;26;20798;-54
2024/04/17 03:34:28;;;;;;;11.70;6.50;;;;;;;4.70;100.00;98886.06;5394766;26;20834;-56
2024/04/17 03:36:54;;;;;;;9.63;6.87;;;;;;;4.71;100.00;98881.56;5368252;26;20256;-54
2024/04/17 03:39:19;;;;;;;13.37;6.80;;;;;;;4.76;100.00;98887.06;5403915;26;20344;-56
2024/04/17 03:41:46;;;;;;;7.33;5.60;;;;;;;4.86;100.00;98891.97;5414293;26;20239;-53
2024/04/17 03:44:12;;;;;;;10.27;6.37;;;;;;;4.92;100.00;98890.28;5402083;26;20291;-55
2024/04/17 03:46:37;;;;;;;8.53;5.83;;;;;;;4.83;100.00;98897.72;5400744;26;20318;-53
2024/04/17 03:49:03;;;;;;;9.07;6.13;;;;;;;4.87;100.00;98897.06;5408597;26;20244;-53
2024/04/17 03:51:28;;;;;;;8.67;5.63;;;;;;;4.96;100.00;98894.16;5407869;26;20808;-55
2024/04/17 03:53:53;;;;;;;8.53;6.20;;;;;;;4.96;100.00;98891.50;5357663;26;20279;-54
2024/04/17 03:56:19;;;;;;;8.93;6.00;;;;;;;4.96;100.00;98899.50;5343823;26;20235;-56
2024/04/17 03:58:44;;;;;;;8.10;6.07;;;;;;;5.01;100.00;98905.00;5412587;26;20235;-53
2024/04/17 04:01:09;;;;;;;14.77;5.77;;;;;;;5.04;100.00;98904.59;5381506;26;20787;-54
2024/04/17 04:03:34;;;;;;;10.13;6.63;;;;;;;5.03;100.00;98905.63;5385185;26;20723;-56
2024/04/17 04:06:00;;;;;;;8.00;5.80;;;;;;;5.07;100.00;98898.00;5382025;26;20228;-56
2024/04/17 04:08:25;;;;;;;8.73;6.20;;;;;;;5.10;100.00;98898.41;5364614;26;20235;-54
2024/04/17 04:10:50;;;;;;;10.07;6.60;;;;;;;5.10;100.00;98903.75;5389236;26;20236;-54
2024/04/17 04:13:16;;;;;;;7.43;5.57;;;;;;;5.02;100.00;98906.66;5359871;26;20286;-53
2024/04/17 04:15:41;;;;;;;8.40;5.60;;;;;;;4.98;100.00;98906.28;5414088;26;20272;-53
2024/04/17 04:18:06;;;;;;;18.07;9.67;;;;;;;5.09;100.00;98907.44;5403921;26;20282;-56
2024/04/17 04:20:32;;;;;;;14.60;8.03;;;;;;;5.16;100.00;98910.06;5405332;26;20232;-55
2024/04/17 04:22:57;;;;;;;10.70;7.03;;;;;;;5.10;100.00;98910.91;5381599;26;20224;-55
2024/04/17 04:25:23;;;;;;;8.83;6.37;;;;;;;5.02;100.00;98914.66;5382970;26;20626;-56
2024/04/17 04:27:48;;;;;;;10.83;6.77;;;;;;;5.05;100.00;98911.56;5396826;26;20231;-52
2024/04/17 04:30:13;;;;;;;7.43;5.27;;;;;;;5.11;100.00;98916.03;5362472;26;20295;-54
2024/04/17 04:32:39;;;;;;;5.63;4.70;;;;;;;5.14;100.00;98926.28;5393962;26;20239;-55
2024/04/17 04:35:05;;;;;;;6.77;5.17;;;;;;;5.10;100.00;98926.91;5400929;26;20318;-56
2024/04/17 04:37:30;;;;;;;6.63;5.30;;;;;;;5.08;100.00;98921.81;5406090;26;20237;-55
2024/04/17 04:39:56;;;;;;;5.73;4.80;;;;;;;5.11;100.00;98926.72;5395474;26;20248;-56
2024/04/17 04:42:21;;;;;;;6.37;5.03;;;;;;;5.15;100.00;98932.44;5413350;26;20274;-56
2024/04/17 04:44:47;;;;;;;9.23;6.03;;;;;;;5.19;100.00;98934.47;5413066;26;20251;-56
2024/04/17 04:47:14;;;;;;;9.50;6.10;;;;;;;5.28;100.00;98936.91;5383474;26;20283;-54
2024/04/17 04:49:40;;;;;;;7.73;5.47;;;;;;;5.24;100.00;98935.69;5407364;26;20273;-56
2024/04/17 04:52:05;;;;;;;7.13;5.33;;;;;;;5.32;100.00;98930.91;5380040;26;20244;-55
2024/04/17 04:54:31;;;;;;;6.17;4.83;;;;;;;5.36;100.00;98936.63;5370852;26;20328;-53
2024/04/17 04:56:57;;;;;;;6.97;4.93;;;;;;;5.35;100.00;98932.31;5409076;26;20893;-56
2024/04/17 04:59:22;;;;;;;6.50;4.73;;;;;;;5.36;100.00;98933.97;5398530;26;20348;-53
2024/04/17 05:01:47;;;;;;;6.83;4.80;;;;;;;5.41;100.00;98930.66;5413020;26;20298;-52
2024/04/17 05:04:13;;;;;;;7.70;5.13;;;;;;;5.43;100.00;98940.06;5404376;26;20793;-57
2024/04/17 05:06:41;;;;;;;15.70;9.60;;;;;;;5.39;100.00;98938.88;5400748;26;20236;-53
2024/04/17 05:09:07;;;;;;;9.90;7.13;;;;;;;5.47;100.00;98941.28;5404217;26;20899;-54
2024/04/17 05:11:32;;;;;;;18.57;12.07;;;;;;;5.53;100.00;98938.81;5409279;26;20257;-56
2024/04/17 05:13:57;;;;;;;12.07;8.80;;;;;;;5.51;100.00;98954.22;5389137;26;20584;-55
2024/04/17 05:16:22;;;;;;;9.70;6.73;;;;;;;5.55;100.00;98942.06;5400874;26;20244;-55
2024/04/17 05:18:50;;;;;;;6.23;4.73;;;;;;;5.42;100.00;98941.13;5398258;26;20240;-56
2024/04/17 05:21:16;;;;;;;6.37;4.73;;;;;;;5.44;100.00;98952.38;5406389;26;20336;-56
2024/04/17 05:23:41;;;;;;;8.60;7.00;;;;;;;5.56;100.00;98951.72;5395595;26;20233;-53
2024/04/17 05:26:06;;;;;;;6.27;5.17;;;;;;;5.63;100.00;98965.84;5363327;26;20236;-52
2024/04/17 05:28:31;;;;;;;10.73;8.17;;;;;;;5.71;100.00;98962.09;5377093;26;20231;-53
2024/04/17 05:30:57;;;;;;;9.27;6.53;;;;;;;5.77;100.00;98962.06;5396878;26;20270;-53
2024/04/17 05:33:23;;;;;;;10.10;6.43;;;;;;;5.81;100.00;98967.78;5401303;26;20291;-53
2024/04/17 05:35:48;;;;;;;8.33;5.67;;;;;;;5.87;100.00;98966.13;5373074;26;20277;-54
2024/04/17 05:38:13;;;;;;;12.63;6.73;;;;;;;5.94;100.00;98969.53;5393776;26;20657;-56
2024/04/17 05:40:44;;;;;;;14.20;7.83;;;;;;;6.01;100.00;98978.34;5394529;26;20616;-53
2024/04/17 05:43:09;;;;;;;6.90;4.40;;;;;;;6.04;100.00;98977.91;5400463;26;20227;-55
2024/04/17 05:45:34;;;;;;;7.63;4.20;;;;;;;6.07;100.00;98984.69;5373252;26;20317;-53
2024/04/17 05:47:59;;;;;;;4.57;3.77;;;;;;;6.02;100.00;98990.66;5400109;26;20271;-56
2024/04/17 05:50:26;;;;;;;10.73;5.63;;;;;;;6.03;100.00;98989.63;5415539;26;20266;-56
2024/04/17 05:52:51;;;;;;;4.33;3.60;;;;;;;6.05;100.00;98989.44;5412873;26;20309;-56
2024/04/17 05:55:16;;;;;;;8.30;4.00;;;;;;;6.19;100.00;98984.78;5408528;26;20240;-55
2024/04/17 05:57:42;;;;;;;4.50;3.70;;;;;;;6.28;100.00;98988.00;5398822;26;20281;-57
2024/04/17 06:00:08;;;;;;;5.07;3.60;;;;;;;6.47;100.00;98996.91;5398901;26;20232;-56
2024/04/17 06:02:33;;;;;;;4.77;3.83;;;;;;;6.55;100.00;98996.59;5399709;26;20278;-56
2024/04/17 06:04:58;;;;;;;5.17;4.63;;;;;;;6.66;100.00;98990.53;5393337;26;20239;-55
2024/04/17 06:07:23;;;;;;;5.20;3.80;;;;;;;6.63;100.00;98998.19;5401584;26;20583;-55
2024/04/17 06:09:49;;;;;;;4.73;3.83;;;;;;;6.74;100.00;99001.97;5400419;26;20773;-56
2024/04/17 06:12:14;;;;;;;4.83;3.50;;;;;;;6.86;100.00;98994.88;5349722;26;20664;-56
2024/04/17 06:14:39;;;;;;;4.37;3.73;;;;;;;6.92;100.00;99002.00;5389847;26;20244;-54
2024/04/17 06:17:04;;;;;;;4.50;3.50;;;;;;;7.01;100.00;99004.41;5397553;26;20587;-56
2024/04/17 06:19:30;;;;;;;4.20;3.60;;;;;;;6.89;100.00;99010.47;5402796;26;20274;-56
2024/04/17 06:21:56;;;;;;;6.00;3.50;;;;;;;7.02;100.00;99009.50;5395273;26;21107;-57
2024/04/17 06:24:24;;;;;;;3.50;3.00;;;;;;;7.05;100.00;99010.94;5376937;26;20239;-57
2024/04/17 06:26:49;;;;;;;3.83;3.33;;;;;;;7.05;100.00;99009.06;5370743;26;20236;-57
2024/04/17 06:29:14;;;;;;;3.63;3.27;;;;;;;7.11;100.00;99012.69;5398947;26;20224;-57
2024/04/17 06:31:40;;;;;;;3.17;2.87;;;;;;;7.35;100.00;99004.81;5399510;26;20271;-54
2024/04/17 06:34:05;;;;;;;3.73;3.40;;;;;;;7.51;100.00;99011.41;5386144;26;20244;-56
2024/04/17 06:36:30;;;;;;;5.07;3.50;;;;;;;7.40;100.00;99015.66;5395818;26;20340;-53
2024/04/17 06:38:56;;;;;;;3.93;3.07;;;;;;;7.25;100.00;99019.53;5406548;26;20235;-52
2024/04/17 06:41:21;;;;;;;4.13;3.40;;;;;;;7.19;100.00;99030.31;5362765;26;20775;-56
2024/04/17 06:43:46;;;;;;;4.87;3.77;;;;;;;7.20;100.00;99026.59;5374763;26;20333;-56
2024/04/17 06:46:11;;;;;;;4.43;3.23;;;;;;;7.15;100.00;99024.59;5379711;26;20231;-55
2024/04/17 06:48:37;;;;;;;3.43;3.13;;;;;;;7.07;99.94;99024.88;5363243;26;20734;-55
2024/04/17 06:51:02;;;;;;;3.80;3.33;;;;;;;7.35;99.16;99026.22;5362305;26;20323;-53
2024/04/17 06:53:27;;;;;;;5.47;3.10;;;;;;;7.52;98.04;99031.78;5362525;26;20259;-56
2024/04/17 06:55:53;;;;;;;3.40;3.10;;;;;;;7.64;97.75;99031.84;5363084;26;20304;-54
2024/04/17 06:58:18;;;;;;;3.20;2.90;;;;;;;7.89;93.78;99031.72;5390802;26;20232;-56
2024/04/17 07:00:44;;;;;;;3.40;3.10;;;;;;;8.27;92.22;99035.03;5399985;26;20232;-53
2024/04/17 07:03:09;;;;;;;2.97;2.67;;;;;;;8.13;91.49;99042.47;5403256;26;20266;-53
2024/04/17 07:05:35;;;;;;;3.83;3.03;;;;;;;7.98;92.41;99037.56;5401315;26;20610;-56
2024/04/17 07:08:00;;;;;;;3.37;3.03;;;;;;;7.96;93.01;99034.28;5390572;26;20335;-55
2024/04/17 07:10:26;;;;;;;5.90;4.33;;;;;;;7.99;91.48;99044.53;5382366;26;20243;-55
2024/04/17 07:12:51;;;;;;;5.20;3.23;;;;;;;7.88;90.81;99042.63;5389509;26;20385;-56
2024/04/17 07:15:16;;;;;;;5.27;3.70;;;;;;;7.78;89.55;99040.50;5407608;26;20723;-55
2024/04/17 07:17:42;;;;;;;3.70;2.90;;;;;;;7.39;89.66;99043.47;5388879;26;20231;-56
2024/04/17 07:20:07;;;;;;;2.93;2.73;;;;;;;7.34;90.01;99040.66;5390552;26;20232;-57
2024/04/17 07:22:33;;;;;;;2.90;2.60;;;;;;;7.39;88.46;99046.16;5400309;26;20764;-56
2024/04/17 07:24:58;;;;;;;3.50;3.20;;;;;;;7.33;91.17;99036.34;5386937;26;20389;-56
2024/04/17 07:27:23;;;;;;;3.47;2.80;;;;;;;7.39;89.62;99040.78;5391022;26;20236;-53
2024/04/17 07:29:49;;;;;;;3.67;3.33;;;;;;;7.69;87.84;99045.34;5396056;26;20232;-57
2024/04/17 07:32:15;;;;;;;3.50;2.90;;;;;;;7.81;87.53;99037.38;5407329;26;20290;-56
2024/04/17 07:34:40;;;;;;;4.60;2.53;;;;;;;7.77;86.96;99036.19;5383510;26;20248;-56
2024/04/17 07:37:05;;;;;;;4.90;2.70;;;;;;;7.92;85.92;99041.16;5352994;26;20335;-53
2024/04/17 07:39:31;;;;;;;3.27;2.43;;;;;;;8.34;85.28;99049.16;5388018;26;20236;-56
2024/04/17 07:41:56;;;;;;;2.87;2.60;;;;;;;9.05;82.09;99051.13;5386015;26;20232;-56
2024/04/17 07:44:22;;;;;;;4.20;2.43;;;;;;;10.71;74.27;99054.97;5368166;26;20232;-53
2024/04/17 07:46:48;;;;;;;3.40;1.90;;;;;;;11.89;68.17;99048.66;5406997;26;20768;-56
2024/04/17 07:49:14;;;;;;;3.37;1.97;;;;;;;13.86;62.94;99056.19;5387304;26;20341;-53
2024/04/17 07:51:39;;;;;;;2.93;1.80;;;;;;;15.41;54.11;99047.97;5405004;26;20286;-53
2024/04/17 07:54:04;;;;;;;2.70;1.70;;;;;;;16.95;48.21;99044.50;5393035;26;20235;-60
2024/04/17 07:56:30;;;;;;;2.90;1.80;;;;;;;19.62;43.02;99053.53;5361125;26;20231;-53
2024/04/17 07:58:55;;;;;;;2.07;1.80;;;;;;;19.96;40.03;99042.19;5386372;26;21765;-53
2024/04/17 08:01:20;;;;;;;4.17;2.40;;;;;;;18.90;41.11;99050.25;5388820;26;20235;-53
2024/04/17 08:03:45;;;;;;;1.70;1.60;;;;;;;18.12;41.76;99035.22;5400085;26;20227;-54
2024/04/17 08:06:12;;;;;;;2.37;1.80;;;;;;;17.09;44.05;99029.16;5336442;26;20262;-54
2024/04/17 08:08:38;;;;;;;2.50;2.03;;;;;;;16.04;46.83;99043.91;5401899;26;20224;-54
2024/04/17 08:11:03;;;;;;;2.77;2.10;;;;;;;15.19;49.47;99034.78;5403576;26;20743;-57
2024/04/17 08:13:29;;;;;;;3.43;3.13;;;;;;;15.45;48.19;99038.22;5416048;26;20333;-55
2024/04/17 08:15:54;;;;;;;4.60;1.60;;;;;;;14.65;48.51;99035.16;5408702;26;20231;-54
2024/04/17 08:18:20;;;;;;;1.37;1.30;;;;;;;13.33;51.06;99032.75;5413267;26;20227;-56
2024/04/17 08:20:45;;;;;;;2.63;1.43;;;;;;;12.67;53.50;99034.78;5405544;26;20733;-56
2024/04/17 08:23:11;;;;;;;3.00;1.70;;;;;;;11.52;55.19;99033.97;5401782;26;20718;-53
2024/04/17 08:25:36;;;;;;;3.90;2.27;;;;;;;10.75;58.30;99044.56;5394852;26;20287;-56
2024/04/17 08:28:02;;;;;;;1.40;1.40;;;;;;;12.95;53.82;99040.13;5408901;26;20227;-55
2024/04/17 08:30:27;;;;;;;1.97;1.50;;;;;;;15.67;48.69;99037.84;5387251;26;20311;-55
2024/04/17 08:32:53;;;;;;;2.43;1.70;;;;;;;16.73;45.03;99040.38;5412306;26;20749;-56
2024/04/17 08:35:18;;;;;;;3.40;2.10;;;;;;;15.23;47.57;99046.69;5394252;26;20228;-56
2024/04/17 08:37:45;;;;;;;3.00;2.00;;;;;;;13.79;51.07;99037.53;5381007;26;20236;-53
2024/04/17 08:40:12;;;;;;;3.43;2.07;;;;;;;12.36;52.83;99036.47;5390776;26;20292;-55
2024/04/17 08:42:40;;;;;;;5.87;3.40;;;;;;;11.82;53.15;99043.47;5371743;26;20239;-56
2024/04/17 08:45:11;;;;;;;4.43;1.40;;;;;;;11.00;54.47;99041.41;5402210;26;20232;-52
2024/04/17 08:47:39;;;;;;;2.17;1.37;;;;;;;10.63;55.55;99042.75;5389321;26;20312;-55
2024/04/17 08:50:05;;;;;;;2.87;1.43;;;;;;;10.61;56.66;99044.06;5401600;26;20231;-52
2024/04/17 08:52:32;;;;;;;4.03;2.00;;;;;;;10.59;56.94;99044.31;5388011;26;20240;-52
2024/04/17 08:54:58;;;;;;;2.33;1.80;;;;;;;11.60;53.73;99055.09;5385882;26;20270;-56
2024/04/17 08:57:23;;;;;;;1.37;1.20;;;;;;;11.79;53.24;99043.97;5412907;26;20987;-56
2024/04/17 08:59:49;;;;;;;3.10;1.20;;;;;;;11.07;54.22;99046.59;5364364;26;20284;-55
2024/04/17 09:02:15;;;;;;;3.00;1.70;;;;;;;10.17;53.55;99050.84;5379778;26;20251;-54
2024/04/17 09:04:45;;;;;;;2.13;1.00;;;;;;;10.01;52.29;99062.41;5393722;26;20296;-56
2024/04/17 09:07:11;;;;;;;3.27;1.10;;;;;;;9.84;52.63;99057.81;5386369;26;20240;-56
2024/04/17 09:09:41;;;;;;;1.00;1.00;;;;;;;11.55;50.91;99058.53;5361708;26;20285;-56
2024/04/17 09:12:10;;;;;;;3.23;1.27;;;;;;;13.22;45.98;99052.69;5402057;26;20282;-56
2024/04/17 09:14:35;;;;;;;1.03;0.83;;;;;;;14.91;43.02;99056.00;5394863;26;20662;-56
2024/04/17 09:17:00;;;;;;;3.67;1.30;;;;;;;15.66;39.54;99057.91;5388757;26;20236;-56
2024/04/17 09:19:25;;;;;;;3.93;1.40;;;;;;;16.43;37.14;99050.41;5363886;26;21027;-53
2024/04/17 09:21:52;;;;;;;0.83;0.73;;;;;;;16.01;36.83;99066.16;5407446;26;20281;-55
2024/04/17 09:24:18;;;;;;;10.50;3.73;;;;;;;15.31;38.03;99064.31;5406154;26;20855;-54
2024/04/17 09:26:44;;;;;;;3.10;2.30;;;;;;;16.45;36.16;99057.19;5396333;26;20240;-56
2024/04/17 09:29:09;;;;;;;22.87;9.27;;;;;;;17.01;34.28;99055.09;5370177;26;20239;-56
2024/04/17 09:31:35;;;;;;;2.80;1.40;;;;;;;18.07;33.79;99040.72;5401270;26;20345;-55
2024/04/17 09:34:01;;;;;;;6.33;1.97;;;;;;;18.64;33.64;99045.28;5400765;26;20271;-56
2024/04/17 09:36:27;;;;;;;2.50;1.67;;;;;;;19.88;30.91;99044.78;5385907;26;20279;-56
2024/04/17 09:38:52;;;;;;;2.53;1.00;;;;;;;19.50;30.19;99041.22;5400166;26;20281;-54
2024/04/17 09:41:19;;;;;;;1.70;1.00;;;;;;;18.74;30.86;99042.38;5394644;26;20283;-56
2024/04/17 09:43:49;;;;;;;2.20;1.20;;;;;;;16.31;33.48;99029.06;5387637;26;20294;-55
2024/04/17 09:46:16;;;;;;;11.60;3.47;;;;;;;17.08;34.46;99032.16;5414907;26;20654;-59
2024/04/17 09:48:41;;;;;;;3.27;2.20;;;;;;;18.42;33.03;99035.81;5385013;26;20315;-55
2024/04/17 09:51:09;;;;;;;3.77;1.70;;;;;;;18.12;30.58;99027.03;5394774;26;20244;-55
2024/04/17 09:53:46;;;;;;;10.77;5.97;;;;;;;17.98;31.83;99024.19;5400662;26;20253;-54
2024/04/17 09:56:14;;;;;;;0.87;0.70;;;;;;;17.74;31.80;99025.09;5391277;26;20242;-56
2024/04/17 09:58:46;;;;;;;9.90;4.50;;;;;;;17.46;32.55;99027.63;5404145;26;20228;-55
2024/04/17 10:01:13;;;;;;;1.97;1.37;;;;;;;16.94;32.10;99027.41;5399700;26;20616;-56
2024/04/17 10:03:41;;;;;;;13.37;6.60;;;;;;;17.65;31.02;99020.63;5399512;26;20802;-57
2024/04/17 10:06:08;;;;;;;3.87;2.20;;;;;;;18.52;31.10;99019.31;5402553;26;20277;-57
2024/04/17 10:08:35;;;;;;;4.90;2.30;;;;;;;18.74;30.68;99019.75;5392157;26;20609;-57
2024/04/17 10:11:01;;;;;;;3.03;1.00;;;;;;;17.70;31.67;99020.53;5399218;26;20279;-55
2024/04/17 10:13:27;;;;;;;2.43;1.20;;;;;;;16.54;32.74;99018.53;5411334;26;20239;-57
2024/04/17 10:15:53;;;;;;;1.13;1.00;;;;;;;15.76;34.09;99015.56;5391164;26;20244;-57
2024/04/17 10:18:19;;;;;;;2.30;1.83;;;;;;;15.29;36.32;99020.41;5394337;26;20700;-55
2024/04/17 10:20:45;;;;;;;2.30;1.30;;;;;;;14.50;38.30;99014.31;5406210;26;20277;-56
2024/04/17 10:23:13;;;;;;;1.77;1.00;;;;;;;14.52;38.64;99028.38;5402888;26;20248;-56
2024/04/17 10:25:47;;;;;;;2.43;1.37;;;;;;;14.20;39.01;99025.94;5400939;26;20247;-57
2024/04/17 10:28:18;;;;;;;1.17;1.10;;;;;;;12.99;40.77;99039.31;5410360;26;20345;-55
2024/04/17 10:30:44;;;;;;;2.27;0.80;;;;;;;12.38;41.60;99042.38;5395818;26;20236;-56
2024/04/17 10:33:29;;;;;;;3.17;1.20;;;;;;;11.93;43.87;99029.03;5396812;26;20283;-55
2024/04/17 10:35:55;;;;;;;2.50;1.17;;;;;;;12.13;43.65;99041.91;5395870;26;20320;-56
2024/04/17 10:38:25;;;;;;;1.60;1.20;;;;;;;12.30;42.38;99033.72;5393308;26;20236;-57
2024/04/17 10:40:54;;;;;;;2.67;0.90;;;;;;;12.56;42.21;99039.31;5407202;26;20236;-54
2024/04/17 10:43:21;;;;;;;5.07;2.10;;;;;;;12.89;41.38;99039.25;5401769;26;20879;-57
2024/04/17 10:45:46;;;;;;;2.50;1.10;;;;;;;13.83;39.68;99026.97;5403640;26;20732;-58
2024/04/17 10:48:14;;;;;;;2.40;0.80;;;;;;;15.29;39.01;99033.97;5358973;26;20240;-55
2024/04/17 10:50:40;;;;;;;0.70;0.70;;;;;;;16.03;37.11;99022.47;5386593;26;20287;-56
2024/04/17 10:53:07;;;;;;;1.27;0.80;;;;;;;15.67;36.20;99024.28;5338806;26;20240;-55
2024/04/17 10:55:33;;;;;;;0.83;0.80;;;;;;;14.74;35.83;99029.19;5388961;26;20249;-56
2024/04/17 10:58:00;;;;;;;0.80;0.60;;;;;;;13.35;36.97;99022.47;5362138;26;20326;-56
2024/04/17 11:00:25;;;;;;;2.40;0.90;;;;;;;12.62;37.77;99023.97;5405463;26;20243;-57
2024/04/17 11:02:52;;;;;;;2.87;1.00;;;;;;;12.83;38.26;99033.03;5399812;26;20235;-53
2024/04/17 11:05:18;;;;;;;3.20;0.90;;;;;;;13.69;37.36;99022.06;5398738;26;20235;-59
2024/04/17 11:07:43;;;;;;;0.80;0.80;;;;;;;15.17;36.27;99021.53;5405093;26;20231;-54
2024/04/17 11:10:11;;;;;;;0.60;0.60;;;;;;;16.35;34.09;99015.72;5347854;26;20348;-57
2024/04/17 11:12:36;;;;;;;0.80;0.77;;;;;;;17.20;32.12;99008.09;5385235;26;20740;-57
2024/04/17 11:15:03;;;;;;;0.93;0.77;;;;;;;17.84;31.19;99010.53;5395721;26;20274;-56
2024/04/17 11:17:28;;;;;;;0.90;0.80;;;;;;;17.80;31.23;99005.97;5368746;26;20235;-56
2024/04/17 11:19:54;;;;;;;1.43;0.83;;;;;;;16.84;32.44;99016.63;5388543;26;20278;-56
2024/04/17 11:22:19;;;;;;;0.90;0.80;;;;;;;16.20;34.23;99022.88;5400103;26;20281;-56
2024/04/17 11:24:49;;;;;;;2.97;0.60;;;;;;;14.63;36.50;99031.09;5384770;26;20271;-58
2024/04/17 11:27:16;;;;;;;2.53;1.07;;;;;;;13.49;37.37;99026.34;5413673;26;20703;-53